createdAt,value
2023-04-16T00:00:51.021Z,10.05
2023-04-16T00:03:19.187Z,11.32
2023-04-16T00:05:50.034Z,11.90
2023-04-16T00:08:26.784Z,11.70
2023-04-16T00:10:54.992Z,12.52
2023-04-16T00:13:32.226Z,10.55
2023-04-16T00:16:04.990Z,12.73
2023-04-16T00:18:35.626Z,12.02
2023-04-16T00:21:09.742Z,11.35
2023-04-16T00:23:40.454Z,11.63
2023-04-16T00:26:09.799Z,11.82
2023-04-16T00:28:40.321Z,13.63
2023-04-16T00:31:08.715Z,10.90
2023-04-16T00:33:41.463Z,11.68
2023-04-16T00:36:16.322Z,10.60
2023-04-16T00:38:46.960Z,11.73
2023-04-16T00:43:43.646Z,11.10
2023-04-16T00:51:43.765Z,10.52
2023-04-16T00:54:12.296Z,10.00
2023-04-16T00:56:43.691Z,11.77
2023-04-16T00:59:13.751Z,11.60
2023-04-16T01:01:40.717Z,11.32
2023-04-16T01:04:09.384Z,10.70
2023-04-16T01:06:41.073Z,11.70
2023-04-16T01:09:10.471Z,13.15
2023-04-16T01:11:40.558Z,11.73
2023-04-16T01:14:10.197Z,10.40
2023-04-16T01:16:37.512Z,11.82
2023-04-16T01:19:08.801Z,10.93
2023-04-16T01:21:37.483Z,11.88
2023-04-16T01:24:07.784Z,10.50
2023-04-16T01:29:16.953Z,10.98
2023-04-16T01:31:52.870Z,12.45
2023-04-16T01:34:26.393Z,11.18
2023-04-16T01:39:49.234Z,11.63
2023-04-16T01:42:18.168Z,13.73
2023-04-16T01:44:51.509Z,13.77
2023-04-16T01:47:24.034Z,11.43
2023-04-16T01:49:56.308Z,11.32
2023-04-16T01:52:25.780Z,13.90
2023-04-16T01:55:03.203Z,13.02
2023-04-16T01:57:31.382Z,11.85
2023-04-16T02:00:03.403Z,12.32
2023-04-16T02:02:31.034Z,12.40
2023-04-16T02:04:57.850Z,11.63
2023-04-16T02:07:31.252Z,11.73
2023-04-16T02:10:03.204Z,12.82
2023-04-16T02:12:31.349Z,12.52
2023-04-16T02:14:59.048Z,11.05
2023-04-16T02:17:26.090Z,11.25
2023-04-16T02:22:34.206Z,12.10
2023-04-16T02:25:03.422Z,13.85
2023-04-16T02:27:38.712Z,12.48
2023-04-16T02:30:08.342Z,11.95
2023-04-16T02:32:35.138Z,13.15
2023-04-16T02:35:04.822Z,11.50
2023-04-16T02:37:35.199Z,11.87
2023-04-16T02:42:38.600Z,12.75
2023-04-16T02:45:05.602Z,13.00
2023-04-16T02:47:34.788Z,13.55
2023-04-16T02:50:03.677Z,13.05
2023-04-16T02:52:32.578Z,11.48
2023-04-16T02:55:00.183Z,12.05
2023-04-16T02:57:42.102Z,14.32
2023-04-16T03:00:09.733Z,12.45
2023-04-16T03:02:36.502Z,12.10
2023-04-16T03:05:04.027Z,14.00
2023-04-16T03:07:32.489Z,14.68
2023-04-16T03:13:00.518Z,12.68
2023-04-16T03:15:34.875Z,13.07
2023-04-16T03:18:01.687Z,10.70
2023-04-16T03:20:31.770Z,13.88
2023-04-16T03:23:02.811Z,12.35
2023-04-16T03:25:50.089Z,14.32
2023-04-16T03:28:26.391Z,14.30
2023-04-16T03:30:55.264Z,15.18
2023-04-16T03:33:26.666Z,13.43
2023-04-16T03:36:00.003Z,12.77
2023-04-16T03:38:30.425Z,16.00
2023-04-16T03:41:12.692Z,13.48
2023-04-16T03:43:41.731Z,14.70
2023-04-16T03:48:51.606Z,12.57
2023-04-16T03:56:47.392Z,14.55
2023-04-16T03:59:15.230Z,14.55
2023-04-16T04:01:42.512Z,14.00
2023-04-16T04:04:13.032Z,16.08
2023-04-16T04:09:21.549Z,14.98
2023-04-16T04:11:49.018Z,14.15
2023-04-16T04:14:18.511Z,14.30
2023-04-16T04:16:46.551Z,14.10
2023-04-16T04:19:14.061Z,14.52
2023-04-16T04:21:42.364Z,16.02
2023-04-16T04:24:11.372Z,15.20
2023-04-16T04:26:40.181Z,15.15
2023-04-16T04:29:07.680Z,13.82
2023-04-16T04:31:34.623Z,13.48
2023-04-16T04:34:01.553Z,17.10
2023-04-16T04:36:29.885Z,14.23
2023-04-16T04:39:00.368Z,16.50
2023-04-16T04:41:32.406Z,12.82
2023-04-16T04:49:37.328Z,12.02
2023-04-16T04:52:12.136Z,15.95
2023-04-16T04:57:35.774Z,11.93
2023-04-16T05:00:16.978Z,13.07
2023-04-16T05:02:46.953Z,12.48
2023-04-16T05:05:14.844Z,12.18
2023-04-16T05:13:13.397Z,12.73
2023-04-16T05:15:40.730Z,10.82
2023-04-16T05:18:16.701Z,10.68
2023-04-16T05:20:55.377Z,11.73
2023-04-16T05:23:23.922Z,11.13
2023-04-16T05:25:59.973Z,10.68
2023-04-16T05:28:31.621Z,10.35
2023-04-16T05:31:00.149Z,10.85
2023-04-16T05:33:27.636Z,9.45
2023-04-16T05:35:58.980Z,10.55
2023-04-16T05:38:25.886Z,11.30
2023-04-16T05:40:53.684Z,11.02
2023-04-16T05:43:25.715Z,11.50
2023-04-16T05:46:05.323Z,10.50
2023-04-16T05:48:44.214Z,10.27
2023-04-16T05:51:15.721Z,14.32
2023-04-16T05:53:46.080Z,12.45
2023-04-16T05:56:26.338Z,12.20
2023-04-16T05:59:07.702Z,12.43
2023-04-16T06:01:39.342Z,12.27
2023-04-16T06:04:06.568Z,12.63
2023-04-16T06:06:36.716Z,13.02
2023-04-16T06:11:34.582Z,12.60
2023-04-16T06:14:03.419Z,12.23
2023-04-16T06:16:30.357Z,11.60
2023-04-16T06:19:08.785Z,11.15
2023-04-16T06:21:48.570Z,13.10
2023-04-16T06:24:22.830Z,11.00
2023-04-16T06:26:49.968Z,11.50
2023-04-16T06:29:22.516Z,11.82
2023-04-16T06:31:55.570Z,10.18
2023-04-16T06:34:27.165Z,10.17
2023-04-16T06:37:03.182Z,12.15
2023-04-16T06:39:32.478Z,11.20
2023-04-16T06:42:03.136Z,10.23
2023-04-16T06:47:01.031Z,13.60
2023-04-16T06:49:30.767Z,11.93
2023-04-16T06:52:05.774Z,9.40
2023-04-16T06:57:10.311Z,10.45
2023-04-16T06:59:37.433Z,10.27
2023-04-16T07:02:06.480Z,9.10
2023-04-16T07:07:34.127Z,8.88
2023-04-16T07:12:49.264Z,11.27
2023-04-16T07:15:39.304Z,10.50
2023-04-16T07:21:04.862Z,10.05
2023-04-16T07:32:00.512Z,10.35
2023-04-16T07:34:28.149Z,14.35
2023-04-16T07:37:05.352Z,13.15
2023-04-16T07:39:40.622Z,11.68
2023-04-16T07:42:12.492Z,11.57
2023-04-16T07:57:38.654Z,11.93
2023-04-16T08:02:50.566Z,12.98
2023-04-16T08:05:19.899Z,12.48
2023-04-16T08:20:02.915Z,13.13
2023-04-16T08:28:27.251Z,11.82
2023-04-16T09:00:26.400Z,15.70
2023-04-16T09:05:40.707Z,15.05
2023-04-16T09:08:09.650Z,16.10
2023-04-16T09:10:36.535Z,14.93
2023-04-16T09:13:12.935Z,14.53
2023-04-16T09:21:33.759Z,15.20
2023-04-16T09:26:53.380Z,15.98
2023-04-16T09:29:41.107Z,14.88
2023-04-16T09:32:20.297Z,15.07
2023-04-16T09:35:00.671Z,15.13
2023-04-16T09:37:41.832Z,15.18
2023-04-16T09:40:13.673Z,13.40
2023-04-16T09:42:41.637Z,16.23
2023-04-16T09:45:18.066Z,15.45
2023-04-16T09:47:51.141Z,13.70
2023-04-16T09:50:31.385Z,14.05
2023-04-16T09:53:07.338Z,14.63
2023-04-16T09:55:38.353Z,13.48
2023-04-16T10:04:05.975Z,15.32
2023-04-16T10:06:36.986Z,15.15
2023-04-16T10:09:20.695Z,13.32
2023-04-16T10:11:59.655Z,14.65
2023-04-16T10:17:37.221Z,12.82
2023-04-16T10:20:07.191Z,13.38
2023-04-16T10:23:10.778Z,11.48
2023-04-16T10:25:48.386Z,14.13
2023-04-16T10:31:01.357Z,14.15
2023-04-16T10:36:41.728Z,12.13
2023-04-16T10:46:05.469Z,13.13
2023-04-16T10:51:36.440Z,13.70
2023-04-16T10:57:18.893Z,14.75
2023-04-16T11:00:04.287Z,14.45
2023-04-16T11:02:33.100Z,14.52
2023-04-16T11:07:56.685Z,14.82
2023-04-16T11:17:43.618Z,17.13
2023-04-16T11:26:32.008Z,15.98
2023-04-16T11:29:14.807Z,14.73
2023-04-16T11:31:55.113Z,18.27
2023-04-16T11:34:27.163Z,17.23
2023-04-16T11:39:53.208Z,16.52
2023-04-16T11:48:05.736Z,17.42
2023-04-16T11:50:33.443Z,19.17
2023-04-16T11:56:03.123Z,17.35
2023-04-16T11:58:37.912Z,16.42
2023-04-16T12:01:19.011Z,17.90
2023-04-16T12:04:41.697Z,17.48
2023-04-16T12:07:23.129Z,17.77
2023-04-16T12:10:03.449Z,19.95
2023-04-16T12:12:42.117Z,16.27
2023-04-16T12:15:14.607Z,18.42
2023-04-16T12:20:32.411Z,20.17
2023-04-16T12:23:08.024Z,15.55
2023-04-16T12:25:39.683Z,16.60
2023-04-16T12:28:14.153Z,17.52
2023-04-16T12:30:58.156Z,16.98
2023-04-16T12:33:37.797Z,17.58
2023-04-16T12:36:24.594Z,16.55
2023-04-16T12:38:55.626Z,18.25
2023-04-16T12:41:26.415Z,16.65
2023-04-16T12:44:15.369Z,18.63
2023-04-16T12:49:53.337Z,17.15
2023-04-16T12:52:23.794Z,18.27
2023-04-16T12:55:13.841Z,17.48
2023-04-16T12:58:07.472Z,18.52
2023-04-16T13:00:38.043Z,21.63
2023-04-16T13:09:39.624Z,19.55
2023-04-16T13:12:09.983Z,22.05
2023-04-16T13:26:09.762Z,20.92
2023-04-16T13:31:31.169Z,25.65
2023-04-16T13:34:08.580Z,23.13
2023-04-16T13:36:44.277Z,22.77
2023-04-16T13:39:15.185Z,23.27
2023-04-16T13:42:03.320Z,22.70
2023-04-16T13:47:11.850Z,21.08
2023-04-16T13:49:49.603Z,21.92
2023-04-16T13:58:15.528Z,21.73
2023-04-16T14:00:53.262Z,22.50
2023-04-16T14:08:49.695Z,21.23
2023-04-16T14:11:21.156Z,21.05
2023-04-16T14:14:04.566Z,22.35
2023-04-16T14:16:36.840Z,22.48
2023-04-16T14:19:29.845Z,21.05
2023-04-16T14:22:00.536Z,20.40
2023-04-16T14:52:35.121Z,19.63
2023-04-16T14:55:03.349Z,19.05
2023-04-16T15:08:52.097Z,15.82
2023-04-16T15:11:27.581Z,15.55
2023-04-16T15:22:26.985Z,13.57
2023-04-16T15:31:05.022Z,11.90
2023-04-16T15:36:21.517Z,11.50
2023-04-16T15:39:22.470Z,12.80
2023-04-16T15:42:16.961Z,13.80
2023-04-16T15:47:41.959Z,10.23
2023-04-16T15:50:15.827Z,12.70
2023-04-16T15:52:51.075Z,13.27
2023-04-16T16:00:48.164Z,11.75
2023-04-16T16:03:25.208Z,10.20
2023-04-16T16:06:00.494Z,10.30
2023-04-16T16:11:28.294Z,11.63
2023-04-16T16:14:23.653Z,10.95
2023-04-16T16:25:55.786Z,11.90
2023-04-16T16:53:06.050Z,14.57
2023-04-16T16:55:36.318Z,13.98
2023-04-16T17:00:56.328Z,14.82
2023-04-16T17:06:05.774Z,14.85
2023-04-16T17:08:47.802Z,17.20
2023-04-16T17:21:16.631Z,13.77
2023-04-16T17:23:47.689Z,14.50
2023-04-16T17:28:57.659Z,14.63
2023-04-16T17:32:04.890Z,14.77
2023-04-16T17:34:42.862Z,15.98
2023-04-16T17:37:46.463Z,15.93
2023-04-16T17:43:44.863Z,15.45
2023-04-16T17:46:24.015Z,16.02
2023-04-16T17:49:11.421Z,15.57
2023-04-16T17:52:16.265Z,19.08
2023-04-16T17:57:45.742Z,15.38
2023-04-16T18:00:29.827Z,16.20
2023-04-16T18:15:15.915Z,18.15
2023-04-16T18:17:48.288Z,17.67
2023-04-16T18:20:26.945Z,18.75
2023-04-16T18:23:03.649Z,20.13
2023-04-16T18:28:47.494Z,19.00
2023-04-16T18:31:21.493Z,19.23
2023-04-16T18:36:36.528Z,20.48
2023-04-16T18:50:52.112Z,19.75
2023-04-16T19:10:06.052Z,21.38
2023-04-16T19:15:40.985Z,21.98
2023-04-16T19:18:11.600Z,21.98
2023-04-16T19:23:53.825Z,24.75
2023-04-16T19:26:22.407Z,27.98
2023-04-16T19:29:03.459Z,26.40
2023-04-16T19:31:54.461Z,24.98
2023-04-16T19:34:23.553Z,25.88
2023-04-16T19:39:36.862Z,28.63
2023-04-16T19:42:04.582Z,27.95
2023-04-16T19:44:33.236Z,28.58
2023-04-16T19:47:02.526Z,29.02
2023-04-16T19:49:29.587Z,26.60
2023-04-16T19:51:56.910Z,34.38
2023-04-16T20:00:23.901Z,27.27
2023-04-16T20:05:44.052Z,27.15
2023-04-16T20:13:23.777Z,29.02
2023-04-16T20:16:04.161Z,29.80
2023-04-16T20:18:34.030Z,28.40
2023-04-16T20:21:08.466Z,30.50
2023-04-16T20:26:20.707Z,30.45
2023-04-16T20:28:51.947Z,30.08
2023-04-16T20:31:25.665Z,31.05
2023-04-16T20:33:59.587Z,32.58
2023-04-16T20:36:33.587Z,29.38
2023-04-16T20:39:05.297Z,30.60
2023-04-16T20:41:37.092Z,30.17
2023-04-16T20:44:10.614Z,29.13
2023-04-16T20:46:49.672Z,29.63
2023-04-16T20:49:26.764Z,28.60
2023-04-16T20:51:54.507Z,32.08
2023-04-16T20:54:24.500Z,31.33
2023-04-16T20:57:03.712Z,30.27
2023-04-16T20:59:36.651Z,28.35
2023-04-16T21:02:20.466Z,29.20
2023-04-16T21:04:49.709Z,30.90
2023-04-16T21:19:38.061Z,28.45
2023-04-16T21:23:04.471Z,32.95
2023-04-16T21:31:01.408Z,30.33
2023-04-16T21:33:31.781Z,32.08
2023-04-16T21:35:59.274Z,31.88
2023-04-16T21:41:30.302Z,31.70
2023-04-16T21:46:52.208Z,32.03
2023-04-16T21:49:27.157Z,34.95
2023-04-16T21:52:03.294Z,31.42
2023-04-16T21:54:38.907Z,29.13
2023-04-16T21:59:50.682Z,34.22
2023-04-16T22:02:35.471Z,31.23
2023-04-16T22:05:29.969Z,32.22
2023-04-16T22:07:57.595Z,31.20
2023-04-16T22:10:34.479Z,30.27
2023-04-16T22:15:46.632Z,33.20
2023-04-16T22:18:14.915Z,29.10
2023-04-16T22:20:46.992Z,29.33
2023-04-16T22:26:03.477Z,28.88
2023-04-16T22:28:31.818Z,28.52
2023-04-16T22:30:59.752Z,33.63
2023-04-16T22:33:31.607Z,29.92
2023-04-16T22:36:05.179Z,34.50
2023-04-16T22:41:27.296Z,32.67
2023-04-16T22:49:23.721Z,28.83
2023-04-16T22:51:54.370Z,30.92
2023-04-16T22:54:46.769Z,32.05
2023-04-16T22:59:55.992Z,31.73
2023-04-16T23:08:10.136Z,29.77
2023-04-16T23:10:38.304Z,33.42
2023-04-16T23:13:07.809Z,32.00
2023-04-16T23:15:41.247Z,32.70
2023-04-16T23:18:16.572Z,34.13
2023-04-16T23:20:56.571Z,33.83
2023-04-16T23:23:28.789Z,29.85
2023-04-16T23:26:01.591Z,32.92
2023-04-16T23:28:30.833Z,35.15
2023-04-16T23:31:03.000Z,31.10
2023-04-16T23:33:31.453Z,31.85
2023-04-16T23:35:58.225Z,29.52
2023-04-16T23:38:25.753Z,34.60
2023-04-16T23:40:55.499Z,32.05
2023-04-16T23:43:22.857Z,35.37
2023-04-16T23:45:57.187Z,32.70
2023-04-16T23:48:24.959Z,36.13
2023-04-16T23:50:52.664Z,35.63
2023-04-16T23:53:23.902Z,33.13
2023-04-16T23:55:55.345Z,32.97
2023-04-16T23:58:23.470Z,38.65
